Time;durP1;ratioP1;P1;durP2;ratioP2;P2;SDS_P1;SDS_P2;PMS_P1;PMS_P2;Temp;Humidity;BMP_temperature;BMP_pressure;BME280_temperature;BME280_humidity;BME280_pressure;Samples;Min_cycle;Max_cycle;Signal;HPM_P1;HPM_P2
2023/10/01 00:00:10;;;;;;;6.95;2.70;;;;;;;;;;5013910;28;20383;-69
2023/10/01 00:02:37;;;;;;;6.15;2.60;;;;;;;;;;5020613;28;20044;-67
2023/10/01 00:05:04;;;;;;;5.90;2.47;;;;;;;;;;5016035;28;20029;-68
2023/10/01 00:07:30;;;;;;;6.35;2.55;;;;;;;;;;5019349;28;20037;-66
2023/10/01 00:09:56;;;;;;;6.22;2.70;;;;;;;;;;5017217;28;20547;-67
2023/10/01 00:12:23;;;;;;;6.07;2.50;;;;;;;;;;5021192;28;20029;-67
2023/10/01 00:14:52;;;;;;;3.60;2.35;;;;;;;;;;5022050;28;20037;-67
2023/10/01 00:17:18;;;;;;;5.63;2.60;;;;;;;;;;5019271;28;20029;-67
2023/10/01 00:19:45;;;;;;;3.75;2.25;;;;;;;;;;5018892;28;20474;-67
2023/10/01 00:22:11;;;;;;;4.78;2.45;;;;;;;;;;5014288;28;20036;-67
2023/10/01 00:24:37;;;;;;;6.07;2.30;;;;;;;;;;5016514;28;20052;-67
2023/10/01 00:27:08;;;;;;;6.43;2.53;;;;;;;;;;5051322;28;20021;-66
2023/10/01 00:29:34;;;;;;;4.75;2.20;;;;;;;;;;5024227;28;20056;-67
2023/10/01 00:32:00;;;;;;;3.28;2.40;;;;;;;;;;5017072;28;20037;-67
2023/10/01 00:34:26;;;;;;;5.40;3.15;;;;;;;;;;5016327;28;20080;-67
2023/10/01 00:36:53;;;;;;;4.30;2.22;;;;;;;;;;5015129;28;20040;-67
2023/10/01 00:39:19;;;;;;;3.25;2.28;;;;;;;;;;5025441;28;20032;-66
2023/10/01 00:41:46;;;;;;;3.67;2.25;;;;;;;;;;5018772;28;20022;-66
2023/10/01 00:44:13;;;;;;;3.08;2.10;;;;;;;;;;5017866;28;20038;-67
2023/10/01 00:46:39;;;;;;;3.90;2.28;;;;;;;;;;5019857;28;20083;-67
2023/10/01 00:49:06;;;;;;;2.88;2.22;;;;;;;;;;5023271;28;20384;-66
2023/10/01 00:51:33;;;;;;;4.63;2.80;;;;;;;;;;5016931;28;20418;-67
2023/10/01 00:54:02;;;;;;;3.83;2.42;;;;;;;;;;5015606;28;20120;-67
2023/10/01 00:56:28;;;;;;;3.75;2.05;;;;;;;;;;5020123;28;20041;-67
2023/10/01 00:58:55;;;;;;;4.43;2.30;;;;;;;;;;5021587;28;20038;-66
2023/10/01 01:01:26;;;;;;;6.50;2.50;;;;;;;;;;5015212;28;20018;-66
2023/10/01 01:03:54;;;;;;;8.20;2.80;;;;;;;;;;5018907;28;20393;-66
2023/10/01 01:06:28;;;;;;;6.82;2.45;;;;;;;;;;5022677;28;20041;-66
2023/10/01 01:08:54;;;;;;;5.32;2.38;;;;;;;;;;5020126;28;20250;-67
2023/10/01 01:11:26;;;;;;;4.65;2.35;;;;;;;;;;5022709;28;20033;-66
2023/10/01 01:16:21;;;;;;;4.57;2.33;;;;;;;;;;5018151;28;20029;-66
2023/10/01 01:18:51;;;;;;;5.82;2.67;;;;;;;;;;5016040;28;20363;-67
2023/10/01 01:21:18;;;;;;;5.70;3.67;;;;;;;;;;5018498;28;20104;-67
2023/10/01 01:23:50;;;;;;;3.60;2.50;;;;;;;;;;5019349;28;20100;-66
2023/10/01 01:26:20;;;;;;;5.25;2.50;;;;;;;;;;5019586;28;20512;-67
2023/10/01 01:28:47;;;;;;;4.85;2.22;;;;;;;;;;5017754;28;20030;-66
2023/10/01 01:31:13;;;;;;;4.05;2.40;;;;;;;;;;5014785;28;20030;-68
2023/10/01 01:33:52;;;;;;;5.15;2.40;;;;;;;;;;5020417;28;20033;-69
2023/10/01 01:36:19;;;;;;;4.85;2.15;;;;;;;;;;5018461;28;20022;-68
2023/10/01 01:39:12;;;;;;;2.78;2.17;;;;;;;;;;5022549;28;20018;-68
2023/10/01 01:41:42;;;;;;;3.97;2.55;;;;;;;;;;5026564;28;20440;-68
2023/10/01 01:44:10;;;;;;;4.50;2.70;;;;;;;;;;5021750;28;20029;-65
2023/10/01 01:46:47;;;;;;;2.97;2.47;;;;;;;;;;5022412;28;20064;-67
2023/10/01 01:49:14;;;;;;;4.47;2.45;;;;;;;;;;5018854;28;20072;-67
2023/10/01 01:51:40;;;;;;;5.88;2.75;;;;;;;;;;5020204;28;20061;-67
2023/10/01 01:54:08;;;;;;;5.10;2.30;;;;;;;;;;5049631;28;20044;-68
2023/10/01 01:56:39;;;;;;;4.90;2.38;;;;;;;;;;5019136;28;20028;-67
2023/10/01 01:59:13;;;;;;;5.60;2.60;;;;;;;;;;5033949;28;20401;-67
2023/10/01 02:01:39;;;;;;;4.13;2.70;;;;;;;;;;5016221;28;20497;-67
2023/10/01 02:04:05;;;;;;;3.05;2.47;;;;;;;;;;5017016;28;20029;-68
2023/10/01 02:06:31;;;;;;;5.53;2.65;;;;;;;;;;5017716;28;20045;-67
2023/10/01 02:08:57;;;;;;;3.15;2.25;;;;;;;;;;5021232;28;20360;-67
2023/10/01 02:11:24;;;;;;;3.22;2.47;;;;;;;;;;5021571;28;20036;-67
2023/10/01 02:13:51;;;;;;;5.65;2.85;;;;;;;;;;5023072;28;20036;-68
2023/10/01 02:18:56;;;;;;;4.88;2.40;;;;;;;;;;5019952;28;20040;-68
2023/10/01 02:21:42;;;;;;;4.82;2.45;;;;;;;;;;5035166;28;20034;-67
2023/10/01 02:24:11;;;;;;;6.55;2.53;;;;;;;;;;5022584;28;20041;-67
2023/10/01 02:26:46;;;;;;;5.30;2.70;;;;;;;;;;5021532;28;20440;-68
2023/10/01 02:29:13;;;;;;;3.92;2.45;;;;;;;;;;5039319;28;20068;-68
2023/10/01 02:31:54;;;;;;;4.78;2.50;;;;;;;;;;5021785;28;20039;-67
2023/10/01 02:34:21;;;;;;;4.93;2.75;;;;;;;;;;5021605;28;20724;-68
2023/10/01 02:36:49;;;;;;;3.00;2.30;;;;;;;;;;5026028;28;20386;-67
2023/10/01 02:39:27;;;;;;;4.38;2.78;;;;;;;;;;5020770;28;20381;-67
2023/10/01 02:44:32;;;;;;;3.35;2.20;;;;;;;;;;5025564;28;20144;-68
2023/10/01 02:47:01;;;;;;;4.68;2.40;;;;;;;;;;5019442;28;20025;-67
2023/10/01 02:49:27;;;;;;;4.78;3.33;;;;;;;;;;5022965;28;20037;-68
2023/10/01 02:51:59;;;;;;;2.80;2.10;;;;;;;;;;5018624;28;20064;-67
2023/10/01 02:54:26;;;;;;;3.72;2.70;;;;;;;;;;5020167;28;20477;-69
2023/10/01 02:56:53;;;;;;;5.55;2.92;;;;;;;;;;5024748;28;21135;-67
2023/10/01 02:59:23;;;;;;;3.65;2.65;;;;;;;;;;5020660;28;20025;-67
2023/10/01 03:01:49;;;;;;;6.53;2.70;;;;;;;;;;5019898;28;20095;-67
2023/10/01 03:04:16;;;;;;;3.10;2.30;;;;;;;;;;5018290;28;20474;-67
2023/10/01 03:06:52;;;;;;;3.50;2.40;;;;;;;;;;5023152;28;20052;-68
2023/10/01 03:09:28;;;;;;;5.35;2.53;;;;;;;;;;5016198;28;20541;-67
2023/10/01 03:12:23;;;;;;;5.38;2.35;;;;;;;;;;5015562;28;20754;-68
2023/10/01 03:14:45;;;;;;;3.80;2.60;;;;;;;;;;5022121;28;20053;-68
2023/10/01 03:17:17;;;;;;;2.83;2.33;;;;;;;;;;5022076;28;20025;-66
2023/10/01 03:19:52;;;;;;;3.20;2.40;;;;;;;;;;5022884;28;20124;-68
2023/10/01 03:22:23;;;;;;;3.08;2.25;;;;;;;;;;5020855;28;20029;-67
2023/10/01 03:24:51;;;;;;;4.47;2.28;;;;;;;;;;5035299;28;20033;-67
2023/10/01 03:27:24;;;;;;;4.35;2.38;;;;;;;;;;5021876;28;20024;-67
2023/10/01 03:30:00;;;;;;;6.57;2.50;;;;;;;;;;5014139;28;20045;-67
2023/10/01 03:32:27;;;;;;;3.42;2.28;;;;;;;;;;5021864;28;20527;-67
2023/10/01 03:34:53;;;;;;;2.97;2.15;;;;;;;;;;5021314;28;20026;-67
2023/10/01 03:37:22;;;;;;;2.92;2.05;;;;;;;;;;5022824;28;20021;-67
2023/10/01 03:39:51;;;;;;;5.60;2.47;;;;;;;;;;5022670;28;20379;-67
2023/10/01 03:42:18;;;;;;;2.38;1.92;;;;;;;;;;5021596;28;20033;-67
2023/10/01 03:47:30;;;;;;;4.60;2.53;;;;;;;;;;5023497;28;20072;-67
2023/10/01 03:49:57;;;;;;;3.75;2.30;;;;;;;;;;5022015;28;20026;-67
2023/10/01 03:52:29;;;;;;;3.92;2.72;;;;;;;;;;5011514;28;20041;-67
2023/10/01 03:57:24;;;;;;;4.40;2.15;;;;;;;;;;5021462;28;20092;-67
2023/10/01 03:59:54;;;;;;;3.67;2.28;;;;;;;;;;5016620;28;20049;-67
2023/10/01 04:02:27;;;;;;;4.47;2.20;;;;;;;;;;5018190;28;20421;-67
2023/10/01 04:04:56;;;;;;;3.33;2.10;;;;;;;;;;5023359;28;20405;-67
2023/10/01 04:07:26;;;;;;;3.30;2.05;;;;;;;;;;5021330;28;20053;-67
2023/10/01 04:09:52;;;;;;;3.10;2.50;;;;;;;;;;5030219;28;20032;-67
2023/10/01 04:12:19;;;;;;;4.75;2.13;;;;;;;;;;5018173;28;20033;-67
2023/10/01 04:14:48;;;;;;;3.30;2.10;;;;;;;;;;5019570;28;20041;-67
2023/10/01 04:17:17;;;;;;;3.33;2.40;;;;;;;;;;5016330;28;20029;-67
2023/10/01 04:19:44;;;;;;;5.15;2.50;;;;;;;;;;5019575;28;20025;-67
2023/10/01 04:22:10;;;;;;;3.80;2.25;;;;;;;;;;5019277;28;20022;-67
2023/10/01 04:24:36;;;;;;;3.83;2.20;;;;;;;;;;5017826;28;20076;-67
2023/10/01 04:27:18;;;;;;;3.38;2.53;;;;;;;;;;5016723;28;20040;-67
2023/10/01 04:29:57;;;;;;;3.63;2.25;;;;;;;;;;5018858;28;20041;-68
2023/10/01 04:32:27;;;;;;;4.72;2.33;;;;;;;;;;5018656;28;20033;-67
2023/10/01 04:34:53;;;;;;;5.20;2.28;;;;;;;;;;5019109;28;20472;-68
2023/10/01 04:37:36;;;;;;;4.93;2.67;;;;;;;;;;5019836;28;20029;-67
2023/10/01 04:40:03;;;;;;;7.00;2.72;;;;;;;;;;5023240;28;20053;-67
2023/10/01 04:42:29;;;;;;;4.88;2.67;;;;;;;;;;5016658;28;20029;-67
2023/10/01 04:44:55;;;;;;;6.75;2.17;;;;;;;;;;5022294;28;20028;-67
2023/10/01 04:47:31;;;;;;;4.50;2.53;;;;;;;;;;5018611;28;20531;-68
2023/10/01 04:49:57;;;;;;;;;;;;;;;;;;5013051;28;20393;-67
2023/10/01 04:52:24;;;;;;;4.50;2.42;;;;;;;;;;5015545;28;19973;-67
2023/10/01 04:54:50;;;;;;;3.47;2.00;;;;;;;;;;5018363;28;20072;-67
2023/10/01 04:57:19;;;;;;;4.68;2.42;;;;;;;;;;5012501;28;20034;-67
2023/10/01 04:59:56;;;;;;;4.68;2.50;;;;;;;;;;5016028;28;20025;-67
2023/10/01 05:02:23;;;;;;;5.22;2.50;;;;;;;;;;5019568;28;20623;-68
2023/10/01 05:04:51;;;;;;;3.05;2.42;;;;;;;;;;5020133;28;20060;-68
2023/10/01 05:07:17;;;;;;;3.53;2.13;;;;;;;;;;5015286;28;20569;-67
2023/10/01 05:09:46;;;;;;;8.13;3.15;;;;;;;;;;5021699;28;20111;-68
2023/10/01 05:12:12;;;;;;;4.60;2.17;;;;;;;;;;5014617;28;20023;-67
2023/10/01 05:14:59;;;;;;;4.30;2.60;;;;;;;;;;5018878;28;20237;-67
2023/10/01 05:17:25;;;;;;;5.10;2.65;;;;;;;;;;5017604;28;20033;-67
2023/10/01 05:19:52;;;;;;;5.43;2.40;;;;;;;;;;5023506;28;20033;-68
2023/10/01 05:22:18;;;;;;;5.80;2.72;;;;;;;;;;5019419;28;20022;-67
2023/10/01 05:24:48;;;;;;;4.47;2.97;;;;;;;;;;5013311;28;20064;-68
2023/10/01 05:27:22;;;;;;;4.47;2.90;;;;;;;;;;5015992;28;20037;-67
2023/10/01 05:29:48;;;;;;;4.93;3.03;;;;;;;;;;5017699;28;20075;-68
2023/10/01 05:32:18;;;;;;;5.00;2.72;;;;;;;;;;5014261;28;20466;-67
2023/10/01 05:34:47;;;;;;;5.30;2.95;;;;;;;;;;5017581;28;20029;-67
2023/10/01 05:37:24;;;;;;;6.20;2.90;;;;;;;;;;5017436;28;20033;-67
2023/10/01 05:39:57;;;;;;;7.13;2.95;;;;;;;;;;5018156;28;20480;-67
2023/10/01 05:42:28;;;;;;;5.47;2.55;;;;;;;;;;5012054;28;20560;-67
2023/10/01 05:44:59;;;;;;;4.75;2.70;;;;;;;;;;5019608;28;20478;-67
2023/10/01 05:50:11;;;;;;;5.18;2.80;;;;;;;;;;5020189;28;20051;-67
2023/10/01 05:52:40;;;;;;;4.55;2.75;;;;;;;;;;5018079;28;20057;-67
2023/10/01 05:55:15;;;;;;;3.83;2.42;;;;;;;;;;5022138;28;20386;-67
2023/10/01 05:57:41;;;;;;;4.90;2.90;;;;;;;;;;5021213;28;20117;-67
2023/10/01 06:00:17;;;;;;;6.05;2.70;;;;;;;;;;5018940;28;20022;-67
2023/10/01 06:02:47;;;;;;;5.40;2.85;;;;;;;;;;5015004;28;20084;-67
2023/10/01 06:08:17;;;;;;;4.35;2.88;;;;;;;;;;5020219;28;20624;-67
2023/10/01 06:10:59;;;;;;;3.65;2.67;;;;;;;;;;5021882;28;20516;-67
2023/10/01 06:13:25;;;;;;;5.22;2.47;;;;;;;;;;5015460;28;20032;-67
2023/10/01 06:15:52;;;;;;;3.97;2.70;;;;;;;;;;5019329;28;20095;-68
2023/10/01 06:18:18;;;;;;;4.30;2.60;;;;;;;;;;5021341;28;20022;-67
2023/10/01 06:20:46;;;;;;;4.00;2.70;;;;;;;;;;5020344;28;20500;-67
2023/10/01 06:23:12;;;;;;;7.45;2.90;;;;;;;;;;5019410;28;20040;-67
2023/10/01 06:25:40;;;;;;;4.53;2.55;;;;;;;;;;5017029;28;20274;-66
2023/10/01 06:28:09;;;;;;;5.05;3.13;;;;;;;;;;5013742;28;20035;-67
2023/10/01 06:30:39;;;;;;;6.55;3.47;;;;;;;;;;5023820;28;20048;-67
2023/10/01 06:33:05;;;;;;;5.13;2.90;;;;;;;;;;5017528;28;20549;-67
2023/10/01 06:35:33;;;;;;;7.95;3.13;;;;;;;;;;5015099;28;20021;-67
2023/10/01 06:38:00;;;;;;;6.78;2.70;;;;;;;;;;5017949;28;20171;-67
2023/10/01 06:40:32;;;;;;;5.70;2.85;;;;;;;;;;5016400;28;20057;-67
2023/10/01 06:42:58;;;;;;;7.03;3.03;;;;;;;;;;5021499;28;20112;-67
2023/10/01 06:45:39;;;;;;;6.57;2.95;;;;;;;;;;5017753;28;20068;-68
2023/10/01 06:48:09;;;;;;;5.22;2.88;;;;;;;;;;5031771;28;20124;-67
2023/10/01 06:50:37;;;;;;;7.18;3.15;;;;;;;;;;5010831;28;20516;-67
2023/10/01 06:53:03;;;;;;;7.80;3.90;;;;;;;;;;5016354;28;20045;-67
2023/10/01 06:55:32;;;;;;;6.20;3.55;;;;;;;;;;5015200;28;20029;-68
2023/10/01 06:58:00;;;;;;;4.35;3.00;;;;;;;;;;5014682;28;20033;-67
2023/10/01 07:00:33;;;;;;;6.75;3.10;;;;;;;;;;5015408;28;20497;-67
2023/10/01 07:03:16;;;;;;;5.50;3.22;;;;;;;;;;5017472;28;20107;-67
2023/10/01 07:05:45;;;;;;;5.28;3.20;;;;;;;;;;5015293;28;20659;-67
2023/10/01 07:08:11;;;;;;;7.13;2.88;;;;;;;;;;5015901;28;20025;-67
2023/10/01 07:10:37;;;;;;;6.03;3.20;;;;;;;;;;5012464;28;20040;-67
2023/10/01 07:13:07;;;;;;;8.23;3.65;;;;;;;;;;5012199;28;22016;-67
2023/10/01 07:15:46;;;;;;;5.03;3.58;;;;;;;;;;5022882;28;20033;-68
2023/10/01 07:18:15;;;;;;;5.45;3.15;;;;;;;;;;5010571;28;20025;-67
2023/10/01 07:20:49;;;;;;;4.03;3.10;;;;;;;;;;5021883;28;20029;-67
2023/10/01 07:23:15;;;;;;;5.07;3.15;;;;;;;;;;5005859;28;20689;-68
2023/10/01 07:25:47;;;;;;;5.85;3.50;;;;;;;;;;5034464;28;20029;-68
2023/10/01 07:28:13;;;;;;;5.07;3.15;;;;;;;;;;5018387;28;20120;-68
2023/10/01 07:30:46;;;;;;;6.35;3.53;;;;;;;;;;5017803;28;20774;-67
2023/10/01 07:33:22;;;;;;;5.40;3.35;;;;;;;;;;5020334;28;20458;-68
2023/10/01 07:36:01;;;;;;;5.47;2.97;;;;;;;;;;5014045;28;20288;-69
2023/10/01 07:38:46;;;;;;;4.70;3.10;;;;;;;;;;5020298;28;20029;-68
2023/10/01 07:41:16;;;;;;;7.53;3.53;;;;;;;;;;5019110;28;20050;-69
2023/10/01 07:43:42;;;;;;;12.68;4.60;;;;;;;;;;5018296;28;20033;-68
2023/10/01 07:46:09;;;;;;;7.65;3.05;;;;;;;;;;5017375;28;20075;-69
2023/10/01 07:48:48;;;;;;;6.75;3.47;;;;;;;;;;5012595;28;20140;-69
2023/10/01 07:51:26;;;;;;;5.32;2.95;;;;;;;;;;5015674;28;20037;-69
2023/10/01 07:53:52;;;;;;;7.78;4.05;;;;;;;;;;5010701;28;20075;-69
2023/10/01 07:56:21;;;;;;;7.93;4.15;;;;;;;;;;5013978;28;20140;-69
2023/10/01 08:01:45;;;;;;;6.80;3.00;;;;;;;;;;5018451;28;20044;-69
2023/10/01 08:04:50;;;;;;;4.90;2.97;;;;;;;;;;5013692;28;20025;-69
2023/10/01 08:07:17;;;;;;;6.30;3.13;;;;;;;;;;5013988;28;20523;-69
2023/10/01 08:09:51;;;;;;;8.20;3.92;;;;;;;;;;5016311;28;20037;-69
2023/10/01 08:12:19;;;;;;;6.82;3.50;;;;;;;;;;5016339;28;20461;-70
2023/10/01 08:15:15;;;;;;;6.43;3.85;;;;;;;;;;5014098;28;20038;-69
2023/10/01 08:17:34;;;;;;;7.18;3.42;;;;;;;;;;5009295;28;20037;-69
2023/10/01 08:20:30;;;;;;;7.75;3.70;;;;;;;;;;5016970;28;20110;-69
2023/10/01 08:23:23;;;;;;;5.45;3.20;;;;;;;;;;5013820;28;20144;-70
2023/10/01 08:25:54;;;;;;;6.00;3.45;;;;;;;;;;5016099;28;20037;-69
2023/10/01 08:31:01;;;;;;;5.78;3.65;;;;;;;;;;5016579;28;20038;-67
2023/10/01 08:33:32;;;;;;;5.95;4.15;;;;;;;;;;5015032;28;20033;-69
2023/10/01 08:36:14;;;;;;;6.03;3.67;;;;;;;;;;5014137;28;20156;-70
2023/10/01 08:38:47;;;;;;;6.85;3.50;;;;;;;;;;5015077;28;20140;-69
2023/10/01 08:41:32;;;;;;;5.95;3.17;;;;;;;;;;5030891;28;20037;-69
2023/10/01 08:44:11;;;;;;;9.02;4.15;;;;;;;;;;5008642;28;20030;-69
2023/10/01 08:46:40;;;;;;;8.52;4.18;;;;;;;;;;5026010;28;21070;-69
2023/10/01 08:49:23;;;;;;;9.35;4.57;;;;;;;;;;5009663;28;20544;-70
2023/10/01 08:52:19;;;;;;;8.80;4.13;;;;;;;;;;5008692;28;20052;-69
2023/10/01 08:54:48;;;;;;;6.53;3.40;;;;;;;;;;5014369;28;20512;-69
2023/10/01 08:57:18;;;;;;;11.38;4.03;;;;;;;;;;5015729;28;20025;-68
2023/10/01 08:59:45;;;;;;;6.90;3.65;;;;;;;;;;5015475;28;20460;-70
2023/10/01 09:02:15;;;;;;;8.75;3.88;;;;;;;;;;5014344;28;20551;-69
2023/10/01 09:04:45;;;;;;;8.88;3.65;;;;;;;;;;5015837;28;20377;-69
2023/10/01 09:07:18;;;;;;;10.13;4.22;;;;;;;;;;5017243;28;20509;-69
2023/10/01 09:09:54;;;;;;;7.35;3.55;;;;;;;;;;5015018;28;20037;-69
2023/10/01 09:12:20;;;;;;;8.98;4.57;;;;;;;;;;5016283;28;21764;-70
2023/10/01 09:14:47;;;;;;;6.88;3.90;;;;;;;;;;5014033;28;20624;-70
2023/10/01 09:17:40;;;;;;;9.75;4.45;;;;;;;;;;5017108;28;20391;-72
2023/10/01 09:20:06;;;;;;;11.30;4.35;;;;;;;;;;5006317;28;20025;-72
2023/10/01 09:25:17;;;;;;;6.75;3.90;;;;;;;;;;5011581;28;20481;-72
2023/10/01 09:30:57;;;;;;;8.55;4.55;;;;;;;;;;5015413;28;20263;-71
2023/10/01 09:33:26;;;;;;;7.70;4.15;;;;;;;;;;5018777;28;20615;-70
2023/10/01 09:36:01;;;;;;;13.15;4.28;;;;;;;;;;5012766;28;20057;-71
2023/10/01 09:38:27;;;;;;;10.90;4.20;;;;;;;;;;5016420;28;20057;-71
2023/10/01 09:40:54;;;;;;;8.10;3.90;;;;;;;;;;5020347;28;20148;-71
2023/10/01 09:43:33;;;;;;;12.60;4.25;;;;;;;;;;5014288;28;20099;-71
2023/10/01 09:46:06;;;;;;;8.05;3.95;;;;;;;;;;5019164;28;20044;-71
2023/10/01 09:48:33;;;;;;;9.40;4.18;;;;;;;;;;5016499;28;20424;-71
2023/10/01 09:51:15;;;;;;;14.57;4.85;;;;;;;;;;5016190;28;20038;-70
2023/10/01 09:53:44;;;;;;;10.25;4.70;;;;;;;;;;5014234;28;21561;-71
2023/10/01 09:56:26;;;;;;;13.75;4.93;;;;;;;;;;5016369;28;21383;-68
2023/10/01 09:58:58;;;;;;;8.38;4.47;;;;;;;;;;5011766;28;20112;-67
2023/10/01 10:01:27;;;;;;;9.23;4.55;;;;;;;;;;5018873;28;20574;-70
2023/10/01 10:03:56;;;;;;;9.25;3.92;;;;;;;;;;5016074;28;20104;-68
2023/10/01 10:06:25;;;;;;;13.27;5.22;;;;;;;;;;5021137;28;20628;-70
2023/10/01 10:09:03;;;;;;;9.73;4.47;;;;;;;;;;5020346;28;20032;-71
2023/10/01 10:11:29;;;;;;;14.25;5.13;;;;;;;;;;5016945;28;20032;-71
2023/10/01 10:13:57;;;;;;;11.30;4.38;;;;;;;;;;5018344;28;20038;-70
2023/10/01 10:16:30;;;;;;;13.40;4.40;;;;;;;;;;5012766;28;20036;-71
2023/10/01 10:19:21;;;;;;;15.90;4.50;;;;;;;;;;5016531;28;20030;-71
2023/10/01 10:24:31;;;;;;;13.98;5.60;;;;;;;;;;5021239;28;20596;-71
2023/10/01 10:27:03;;;;;;;10.88;4.68;;;;;;;;;;5017850;28;20033;-71
2023/10/01 10:29:56;;;;;;;11.00;5.03;;;;;;;;;;5017394;28;20030;-71
2023/10/01 10:32:26;;;;;;;11.18;4.75;;;;;;;;;;5017181;28;20021;-71
2023/10/01 10:35:04;;;;;;;12.60;4.72;;;;;;;;;;5024761;28;20045;-71
2023/10/01 10:37:36;;;;;;;10.13;4.00;;;;;;;;;;5021024;28;20029;-71
2023/10/01 10:42:38;;;;;;;8.02;3.58;;;;;;;;;;5023797;28;20032;-70
2023/10/01 10:45:19;;;;;;;8.80;4.22;;;;;;;;;;5025309;28;20029;-71
2023/10/01 10:47:58;;;;;;;10.65;3.85;;;;;;;;;;5014559;28;20054;-71
2023/10/01 10:50:46;;;;;;;11.15;4.55;;;;;;;;;;5018637;28;20040;-72
2023/10/01 10:53:19;;;;;;;10.95;3.75;;;;;;;;;;5012392;28;20148;-71
2023/10/01 10:55:55;;;;;;;16.17;4.18;;;;;;;;;;5020038;28;20358;-72
2023/10/01 10:58:24;;;;;;;9.73;3.85;;;;;;;;;;5019247;28;20033;-71
2023/10/01 11:00:50;;;;;;;11.10;4.15;;;;;;;;;;5034095;28;20040;-72
2023/10/01 11:03:38;;;;;;;9.48;4.00;;;;;;;;;;5014900;28;20513;-71
2023/10/01 11:06:18;;;;;;;9.77;4.22;;;;;;;;;;5019923;28;20037;-71
2023/10/01 11:08:50;;;;;;;11.40;4.53;;;;;;;;;;5014578;28;20354;-72
2023/10/01 11:11:39;;;;;;;13.30;4.28;;;;;;;;;;5019639;28;20525;-71
2023/10/01 11:14:15;;;;;;;9.38;4.05;;;;;;;;;;5019226;28;20119;-72
2023/10/01 11:16:44;;;;;;;8.45;3.92;;;;;;;;;;5015358;28;20572;-72
2023/10/01 11:19:14;;;;;;;8.90;3.85;;;;;;;;;;5016902;28;20032;-71
2023/10/01 11:21:54;;;;;;;11.65;4.13;;;;;;;;;;5019216;28;20026;-71
2023/10/01 11:24:21;;;;;;;13.75;4.53;;;;;;;;;;5013870;28;20025;-72
2023/10/01 11:27:11;;;;;;;10.02;4.38;;;;;;;;;;5007075;28;20025;-73
2023/10/01 11:29:38;;;;;;;9.57;3.80;;;;;;;;;;5016594;28;20033;-71
2023/10/01 11:32:05;;;;;;;11.38;3.38;;;;;;;;;;5017170;28;20517;-71
2023/10/01 11:34:55;;;;;;;7.40;3.60;;;;;;;;;;5015143;28;20132;-72
2023/10/01 11:37:42;;;;;;;10.55;3.00;;;;;;;;;;5029435;28;20029;-73
2023/10/01 11:40:08;;;;;;;7.25;3.65;;;;;;;;;;5018815;28;20468;-71
2023/10/01 11:42:38;;;;;;;8.60;3.88;;;;;;;;;;5021411;28;20026;-72
2023/10/01 11:45:30;;;;;;;11.35;3.47;;;;;;;;;;5007974;28;20163;-71
2023/10/01 11:48:05;;;;;;;6.82;3.50;;;;;;;;;;5010042;28;20094;-72
2023/10/01 11:50:32;;;;;;;11.50;4.10;;;;;;;;;;4998715;28;22340;-71
2023/10/01 11:53:07;;;;;;;9.70;3.83;;;;;;;;;;5027548;28;20516;-72
2023/10/01 11:55:33;;;;;;;12.43;4.45;;;;;;;;;;5014307;28;20026;-72
2023/10/01 11:58:00;;;;;;;7.47;3.40;;;;;;;;;;5019397;28;20032;-72
2023/10/01 12:00:52;;;;;;;7.18;3.22;;;;;;;;;;5015983;28;20057;-72
2023/10/01 12:03:18;;;;;;;8.88;3.20;;;;;;;;;;5015825;28;20028;-74
2023/10/01 12:05:46;;;;;;;6.85;3.38;;;;;;;;;;5011935;28;20034;-72
2023/10/01 12:08:18;;;;;;;8.55;3.03;;;;;;;;;;5015075;28;20037;-72
2023/10/01 12:10:45;;;;;;;6.57;3.25;;;;;;;;;;5017012;28;20044;-72
2023/10/01 12:13:13;;;;;;;12.05;4.32;;;;;;;;;;5014883;28;20389;-72
2023/10/01 12:15:51;;;;;;;6.75;3.72;;;;;;;;;;5012969;28;20022;-72
2023/10/01 12:18:17;;;;;;;7.10;3.38;;;;;;;;;;5012316;28;20512;-74
2023/10/01 12:20:56;;;;;;;7.03;3.65;;;;;;;;;;5011478;28;20501;-74
2023/10/01 12:23:26;;;;;;;5.63;3.33;;;;;;;;;;5016154;28;20038;-74
2023/10/01 12:28:23;;;;;;;7.40;3.50;;;;;;;;;;5016158;28;20036;-72
2023/10/01 12:31:00;;;;;;;7.75;3.55;;;;;;;;;;5009935;28;20388;-73
2023/10/01 12:33:46;;;;;;;13.70;4.03;;;;;;;;;;5009300;28;21415;-73
2023/10/01 12:36:31;;;;;;;12.50;3.58;;;;;;;;;;5013837;28;20511;-73
2023/10/01 12:42:11;;;;;;;9.13;4.10;;;;;;;;;;5015464;28;20037;-73
2023/10/01 12:44:33;;;;;;;10.57;4.03;;;;;;;;;;5018183;28;20043;-72
2023/10/01 12:47:02;;;;;;;8.05;3.28;;;;;;;;;;5015020;28;20642;-73
2023/10/01 12:49:32;;;;;;;8.18;3.25;;;;;;;;;;5017544;28;20163;-73
2023/10/01 12:51:59;;;;;;;14.60;4.15;;;;;;;;;;5014805;28;20115;-74
2023/10/01 12:54:25;;;;;;;6.47;3.30;;;;;;;;;;5020322;28;20057;-73
2023/10/01 12:57:18;;;;;;;6.57;3.13;;;;;;;;;;5019223;28;20021;-73
2023/10/01 12:59:46;;;;;;;10.23;3.90;;;;;;;;;;5017852;28;20022;-74
2023/10/01 13:02:28;;;;;;;13.45;4.55;;;;;;;;;;5018008;28;20022;-72
2023/10/01 13:07:40;;;;;;;6.07;3.30;;;;;;;;;;5017588;28;20095;-73
2023/10/01 13:10:07;;;;;;;9.18;3.72;;;;;;;;;;5033142;28;20092;-72
2023/10/01 13:12:49;;;;;;;7.88;3.70;;;;;;;;;;5016161;28;20152;-73
2023/10/01 13:15:15;;;;;;;8.98;3.78;;;;;;;;;;5015279;28;21895;-73
2023/10/01 13:17:45;;;;;;;6.47;2.97;;;;;;;;;;5016939;28;20049;-72
2023/10/01 13:20:26;;;;;;;7.30;2.88;;;;;;;;;;5014806;28;20045;-73
2023/10/01 13:22:59;;;;;;;8.50;3.45;;;;;;;;;;5014826;28;20026;-73
2023/10/01 13:25:26;;;;;;;9.18;3.40;;;;;;;;;;5014550;28;20029;-73
2023/10/01 13:28:01;;;;;;;8.90;3.80;;;;;;;;;;5012692;28;20033;-73
2023/10/01 13:33:20;;;;;;;9.15;3.65;;;;;;;;;;5014736;28;20029;-74
2023/10/01 13:35:50;;;;;;;13.07;5.18;;;;;;;;;;5017932;28;20477;-74
2023/10/01 13:38:56;;;;;;;7.25;3.83;;;;;;;;;;5014842;28;20461;-74
2023/10/01 14:09:09;;;;;;;8.43;3.25;;;;;;;;;;5018227;28;20504;-73
2023/10/01 14:11:39;;;;;;;13.77;3.40;;;;;;;;;;5017133;28;20532;-72
2023/10/01 14:14:07;;;;;;;10.32;3.33;;;;;;;;;;5013263;28;20044;-72
2023/10/01 14:16:33;;;;;;;10.35;3.30;;;;;;;;;;5017767;28;20086;-73
2023/10/01 14:19:15;;;;;;;9.55;3.85;;;;;;;;;;5023398;28;20061;-72
2023/10/01 14:21:41;;;;;;;9.13;3.60;;;;;;;;;;5014051;28;20497;-73
2023/10/01 14:24:24;;;;;;;7.25;3.22;;;;;;;;;;5019222;28;20378;-73
2023/10/01 14:26:50;;;;;;;8.63;3.15;;;;;;;;;;5016580;28;20029;-72
2023/10/01 14:29:22;;;;;;;10.65;3.80;;;;;;;;;;5020580;28;20028;-72
2023/10/01 14:31:54;;;;;;;7.22;3.38;;;;;;;;;;5017031;28;20025;-72
2023/10/01 14:34:21;;;;;;;7.55;3.20;;;;;;;;;;5019232;28;20033;-73
2023/10/01 14:36:51;;;;;;;9.10;4.28;;;;;;;;;;5019311;28;20033;-72
2023/10/01 14:39:18;;;;;;;8.52;2.85;;;;;;;;;;5017527;28;20044;-73
2023/10/01 14:41:50;;;;;;;8.05;3.70;;;;;;;;;;5018046;28;20025;-73
2023/10/01 14:44:24;;;;;;;5.63;3.22;;;;;;;;;;5015822;28;20040;-72
2023/10/01 14:46:52;;;;;;;6.50;3.57;;;;;;;;;;5032742;28;20044;-72
2023/10/01 14:49:19;;;;;;;7.82;3.20;;;;;;;;;;5018946;28;20280;-72
2023/10/01 14:51:56;;;;;;;10.80;3.10;;;;;;;;;;5019180;28;20034;-72
2023/10/01 14:54:23;;;;;;;9.20;3.55;;;;;;;;;;5017757;28;20032;-73
2023/10/01 14:56:54;;;;;;;7.75;3.20;;;;;;;;;;5042879;28;20041;-73
2023/10/01 14:59:21;;;;;;;9.77;3.13;;;;;;;;;;5019416;28;20040;-72
2023/10/01 15:01:50;;;;;;;10.88;3.38;;;;;;;;;;5011823;28;20018;-73
2023/10/01 15:04:17;;;;;;;7.72;3.45;;;;;;;;;;5016096;28;20116;-72
2023/10/01 15:06:56;;;;;;;10.73;3.13;;;;;;;;;;5017216;28;20037;-72
2023/10/01 15:09:25;;;;;;;8.35;3.05;;;;;;;;;;5019697;28;20497;-72
2023/10/01 15:11:54;;;;;;;11.13;3.15;;;;;;;;;;5013730;28;20018;-73
2023/10/01 15:14:26;;;;;;;7.93;3.20;;;;;;;;;;5031469;28;20478;-71
2023/10/01 15:16:53;;;;;;;9.27;3.35;;;;;;;;;;5020897;28;20071;-70
2023/10/01 15:19:19;;;;;;;7.35;3.17;;;;;;;;;;5016500;28;20038;-69
2023/10/01 15:21:48;;;;;;;8.80;2.88;;;;;;;;;;5017071;28;20470;-70
2023/10/01 15:24:14;;;;;;;9.30;3.90;;;;;;;;;;5016855;28;20025;-70
2023/10/01 15:26:43;;;;;;;6.97;3.17;;;;;;;;;;5022706;28;20030;-70
2023/10/01 15:29:12;;;;;;;9.27;3.40;;;;;;;;;;5018974;28;20033;-69
2023/10/01 15:31:38;;;;;;;7.75;2.92;;;;;;;;;;5002903;28;20033;-70
2023/10/01 15:34:05;;;;;;;8.30;2.90;;;;;;;;;;5017027;28;20385;-70
2023/10/01 15:36:41;;;;;;;7.97;3.10;;;;;;;;;;5015482;28;20026;-70
2023/10/01 15:39:14;;;;;;;7.20;3.10;;;;;;;;;;5016566;28;20061;-70
2023/10/01 15:41:41;;;;;;;7.30;2.58;;;;;;;;;;5030798;28;20063;-70
2023/10/01 15:44:08;;;;;;;14.88;4.57;;;;;;;;;;5012196;28;20087;-70
2023/10/01 15:46:40;;;;;;;8.77;3.08;;;;;;;;;;5018536;28;20068;-73
2023/10/01 15:49:18;;;;;;;8.98;2.90;;;;;;;;;;5015753;28;20025;-73
2023/10/01 15:51:46;;;;;;;5.25;3.33;;;;;;;;;;5013572;28;20030;-74
2023/10/01 15:54:22;;;;;;;8.02;3.38;;;;;;;;;;5014621;28;20033;-73
2023/10/01 15:56:49;;;;;;;6.43;3.10;;;;;;;;;;5016802;28;20084;-72
2023/10/01 15:59:19;;;;;;;8.30;2.63;;;;;;;;;;5016423;28;20300;-73
2023/10/01 16:01:50;;;;;;;9.32;2.60;;;;;;;;;;5018025;28;20067;-74
2023/10/01 16:04:21;;;;;;;6.30;3.30;;;;;;;;;;5019200;28;20071;-73
2023/10/01 16:06:48;;;;;;;8.65;2.65;;;;;;;;;;5019143;28;20028;-73
2023/10/01 16:09:15;;;;;;;9.50;3.10;;;;;;;;;;5019015;28;20410;-74
2023/10/01 16:11:41;;;;;;;9.57;2.78;;;;;;;;;;5018651;28;20030;-73
2023/10/01 16:14:09;;;;;;;8.90;2.83;;;;;;;;;;5015886;28;20496;-73
2023/10/01 16:16:36;;;;;;;7.60;3.08;;;;;;;;;;5014347;28;20038;-73
2023/10/01 16:19:05;;;;;;;4.03;2.50;;;;;;;;;;5017937;28;20036;-73